sensor_id;sensor_type;location;lat;lon;timestamp;pressure;altitude;pressure_sealevel;temperature;humidity
68476;BME280;55464;48.266;14.188;2023-05-02T00:01:43;97737.94;;;13.11;72.46
68476;BME280;55464;48.266;14.188;2023-05-02T00:04:09;97736.94;;;13.19;72.42
68476;BME280;55464;48.266;14.188;2023-05-02T00:06:35;97745.75;;;13.24;72.47
68476;BME280;55464;48.266;14.188;2023-05-02T00:09:00;97737.22;;;13.14;72.65
68476;BME280;55464;48.266;14.188;2023-05-02T00:11:25;97751.50;;;13.16;72.86
68476;BME280;55464;48.266;14.188;2023-05-02T00:13:51;97737.44;;;13.05;73.21
68476;BME280;55464;48.266;14.188;2023-05-02T00:16:16;97749.66;;;13.04;73.57
68476;BME280;55464;48.266;14.188;2023-05-02T00:18:42;97751.69;;;13.07;73.64
68476;BME280;55464;48.266;14.188;2023-05-02T00:21:07;97743.75;;;13.05;73.50
68476;BME280;55464;48.266;14.188;2023-05-02T00:23:33;97746.53;;;13.05;73.38
68476;BME280;55464;48.266;14.188;2023-05-02T00:25:59;97745.72;;;13.05;73.65
68476;BME280;55464;48.266;14.188;2023-05-02T00:28:25;97750.97;;;13.10;73.47
68476;BME280;55464;48.266;14.188;2023-05-02T00:30:53;97748.72;;;13.16;73.21
68476;BME280;55464;48.266;14.188;2023-05-02T00:33:18;97754.03;;;13.05;73.19
68476;BME280;55464;48.266;14.188;2023-05-02T00:35:44;97755.19;;;13.04;73.71
68476;BME280;55464;48.266;14.188;2023-05-02T00:38:09;97751.63;;;13.03;73.48
68476;BME280;55464;48.266;14.188;2023-05-02T00:40:42;97737.28;;;12.98;73.71
68476;BME280;55464;48.266;14.188;2023-05-02T00:43:09;97740.31;;;12.93;73.73
68476;BME280;55464;48.266;14.188;2023-05-02T00:45:34;97743.44;;;12.91;73.95
68476;BME280;55464;48.266;14.188;2023-05-02T00:48:00;97738.19;;;12.86;73.98
68476;BME280;55464;48.266;14.188;2023-05-02T00:50:26;97748.03;;;12.83;74.21
68476;BME280;55464;48.266;14.188;2023-05-02T00:52:54;97754.28;;;12.80;73.97
68476;BME280;55464;48.266;14.188;2023-05-02T00:55:19;97753.09;;;12.81;74.07
68476;BME280;55464;48.266;14.188;2023-05-02T00:57:45;97756.53;;;12.75;73.99
68476;BME280;55464;48.266;14.188;2023-05-02T01:00:11;97757.16;;;12.68;74.46
68476;BME280;55464;48.266;14.188;2023-05-02T01:02:50;97760.44;;;12.74;74.35
68476;BME280;55464;48.266;14.188;2023-05-02T01:05:25;97758.47;;;12.74;74.25
68476;BME280;55464;48.266;14.188;2023-05-02T01:10:47;97755.69;;;12.74;74.44
68476;BME280;55464;48.266;14.188;2023-05-02T01:13:20;97761.88;;;12.83;74.03
68476;BME280;55464;48.266;14.188;2023-05-02T01:15:47;97762.69;;;12.68;74.36
68476;BME280;55464;48.266;14.188;2023-05-02T01:18:17;97763.47;;;12.68;74.27
68476;BME280;55464;48.266;14.188;2023-05-02T01:20:47;97754.75;;;12.66;74.16
68476;BME280;55464;48.266;14.188;2023-05-02T01:23:31;97761.22;;;12.74;74.13
68476;BME280;55464;48.266;14.188;2023-05-02T01:26:15;97771.16;;;12.75;74.52
68476;BME280;55464;48.266;14.188;2023-05-02T01:31:20;97762.06;;;12.75;74.60
68476;BME280;55464;48.266;14.188;2023-05-02T01:33:47;97760.00;;;12.72;75.01
68476;BME280;55464;48.266;14.188;2023-05-02T01:36:14;97766.41;;;12.76;74.82
68476;BME280;55464;48.266;14.188;2023-05-02T01:38:42;97754.03;;;12.70;75.14
68476;BME280;55464;48.266;14.188;2023-05-02T01:41:09;97760.09;;;12.75;74.81
68476;BME280;55464;48.266;14.188;2023-05-02T01:43:36;97772.75;;;12.76;75.22
68476;BME280;55464;48.266;14.188;2023-05-02T01:46:04;97775.41;;;12.73;75.74
68476;BME280;55464;48.266;14.188;2023-05-02T01:48:31;97773.34;;;12.85;75.63
68476;BME280;55464;48.266;14.188;2023-05-02T01:50:58;97772.19;;;12.86;75.52
68476;BME280;55464;48.266;14.188;2023-05-02T01:53:25;97775.50;;;12.92;75.04
68476;BME280;55464;48.266;14.188;2023-05-02T01:55:54;97770.75;;;12.93;75.32
68476;BME280;55464;48.266;14.188;2023-05-02T01:58:21;97770.03;;;12.96;75.22
68476;BME280;55464;48.266;14.188;2023-05-02T02:00:46;97766.44;;;12.95;74.42
68476;BME280;55464;48.266;14.188;2023-05-02T02:03:13;97774.13;;;13.02;74.49
68476;BME280;55464;48.266;14.188;2023-05-02T02:05:41;97767.00;;;13.01;74.12
68476;BME280;55464;48.266;14.188;2023-05-02T02:08:07;97775.72;;;13.03;74.09
68476;BME280;55464;48.266;14.188;2023-05-02T02:10:39;97773.31;;;13.01;73.86
68476;BME280;55464;48.266;14.188;2023-05-02T02:13:12;97776.69;;;13.11;73.67
68476;BME280;55464;48.266;14.188;2023-05-02T02:15:46;97772.44;;;12.97;74.16
68476;BME280;55464;48.266;14.188;2023-05-02T02:18:17;97783.22;;;13.02;73.49
68476;BME280;55464;48.266;14.188;2023-05-02T02:20:46;97772.44;;;12.97;73.78
68476;BME280;55464;48.266;14.188;2023-05-02T02:23:13;97760.91;;;12.95;73.52
68476;BME280;55464;48.266;14.188;2023-05-02T02:25:41;97780.56;;;13.06;73.65
68476;BME280;55464;48.266;14.188;2023-05-02T02:28:06;97766.91;;;12.97;73.56
68476;BME280;55464;48.266;14.188;2023-05-02T02:30:32;97777.13;;;13.13;73.03
68476;BME280;55464;48.266;14.188;2023-05-02T02:32:58;97775.44;;;13.08;72.47
68476;BME280;55464;48.266;14.188;2023-05-02T02:35:30;97775.22;;;12.97;72.92
68476;BME280;55464;48.266;14.188;2023-05-02T02:38:05;97784.22;;;12.94;73.26
68476;BME280;55464;48.266;14.188;2023-05-02T02:40:41;97783.59;;;13.01;73.30
68476;BME280;55464;48.266;14.188;2023-05-02T02:43:19;97780.84;;;13.01;73.60
68476;BME280;55464;48.266;14.188;2023-05-02T02:54:04;97786.91;;;12.91;73.49
68476;BME280;55464;48.266;14.188;2023-05-02T02:56:45;97785.69;;;13.08;72.62
68476;BME280;55464;48.266;14.188;2023-05-02T02:59:14;97777.25;;;13.00;72.61
68476;BME280;55464;48.266;14.188;2023-05-02T03:01:47;97773.72;;;12.84;72.68
68476;BME280;55464;48.266;14.188;2023-05-02T03:04:19;97791.94;;;12.85;73.18
68476;BME280;55464;48.266;14.188;2023-05-02T03:06:45;97794.69;;;12.85;73.16
68476;BME280;55464;48.266;14.188;2023-05-02T03:09:15;97792.72;;;12.85;72.93
68476;BME280;55464;48.266;14.188;2023-05-02T03:11:43;97792.72;;;12.85;72.74
68476;BME280;55464;48.266;14.188;2023-05-02T03:14:10;97785.75;;;12.76;73.03
68476;BME280;55464;48.266;14.188;2023-05-02T03:16:37;97793.75;;;12.97;72.53
68476;BME280;55464;48.266;14.188;2023-05-02T03:19:04;97798.97;;;12.82;73.33
68476;BME280;55464;48.266;14.188;2023-05-02T03:21:30;97804.50;;;12.82;73.33
68476;BME280;55464;48.266;14.188;2023-05-02T03:23:59;97799.84;;;12.86;73.44
68476;BME280;55464;48.266;14.188;2023-05-02T03:26:25;97809.47;;;12.93;72.85
68476;BME280;55464;48.266;14.188;2023-05-02T03:28:51;97795.22;;;12.91;72.81
68476;BME280;55464;48.266;14.188;2023-05-02T03:31:17;97804.66;;;12.90;73.06
68476;BME280;55464;48.266;14.188;2023-05-02T03:33:42;97808.78;;;12.96;73.08
68476;BME280;55464;48.266;14.188;2023-05-02T03:36:08;97808.69;;;12.92;73.31
68476;BME280;55464;48.266;14.188;2023-05-02T03:38:33;97815.72;;;12.90;73.41
68476;BME280;55464;48.266;14.188;2023-05-02T03:40:59;97808.59;;;12.89;73.15
68476;BME280;55464;48.266;14.188;2023-05-02T03:43:24;97817.25;;;12.87;72.96
68476;BME280;55464;48.266;14.188;2023-05-02T03:45:50;97819.47;;;12.97;72.35
68476;BME280;55464;48.266;14.188;2023-05-02T03:48:15;97825.56;;;12.87;72.83
68476;BME280;55464;48.266;14.188;2023-05-02T03:50:41;97815.56;;;12.82;72.95
68476;BME280;55464;48.266;14.188;2023-05-02T03:53:07;97826.25;;;13.00;72.83
68476;BME280;55464;48.266;14.188;2023-05-02T03:55:41;97826.97;;;12.97;72.66
68476;BME280;55464;48.266;14.188;2023-05-02T03:58:06;97833.41;;;13.01;72.17
68476;BME280;55464;48.266;14.188;2023-05-02T04:00:32;97832.41;;;12.93;72.44
68476;BME280;55464;48.266;14.188;2023-05-02T04:03:00;97827.88;;;12.85;72.79
68476;BME280;55464;48.266;14.188;2023-05-02T04:05:25;97831.72;;;12.80;73.06
68476;BME280;55464;48.266;14.188;2023-05-02T04:07:51;97837.94;;;12.93;72.23
68476;BME280;55464;48.266;14.188;2023-05-02T04:10:16;97826.97;;;12.81;72.76
68476;BME280;55464;48.266;14.188;2023-05-02T04:12:42;97844.19;;;12.90;72.96
68476;BME280;55464;48.266;14.188;2023-05-02T04:15:09;97840.47;;;12.82;72.96
68476;BME280;55464;48.266;14.188;2023-05-02T04:17:34;97849.81;;;12.78;73.53
68476;BME280;55464;48.266;14.188;2023-05-02T04:20:00;97844.38;;;12.65;73.77
68476;BME280;55464;48.266;14.188;2023-05-02T04:22:25;97858.59;;;12.80;73.68
68476;BME280;55464;48.266;14.188;2023-05-02T04:24:52;97860.09;;;12.77;73.62
68476;BME280;55464;48.266;14.188;2023-05-02T04:27:17;97869.25;;;12.81;73.50
68476;BME280;55464;48.266;14.188;2023-05-02T04:29:43;97844.72;;;12.64;73.88
68476;BME280;55464;48.266;14.188;2023-05-02T04:32:08;97862.31;;;12.72;74.17
68476;BME280;55464;48.266;14.188;2023-05-02T04:34:34;97879.09;;;12.79;73.44
68476;BME280;55464;48.266;14.188;2023-05-02T04:37:00;97874.34;;;12.79;73.80
68476;BME280;55464;48.266;14.188;2023-05-02T04:39:25;97877.03;;;12.76;73.07
68476;BME280;55464;48.266;14.188;2023-05-02T04:41:51;97879.34;;;12.74;73.21
68476;BME280;55464;48.266;14.188;2023-05-02T04:44:16;97874.97;;;12.73;73.69
68476;BME280;55464;48.266;14.188;2023-05-02T04:46:42;97882.03;;;12.70;73.63
68476;BME280;55464;48.266;14.188;2023-05-02T04:49:08;97884.09;;;12.73;73.65
68476;BME280;55464;48.266;14.188;2023-05-02T04:51:34;97882.56;;;12.76;73.32
68476;BME280;55464;48.266;14.188;2023-05-02T04:54:00;97881.41;;;12.77;73.48
68476;BME280;55464;48.266;14.188;2023-05-02T04:56:25;97881.22;;;12.70;72.70
68476;BME280;55464;48.266;14.188;2023-05-02T04:58:51;97890.94;;;12.79;72.89
68476;BME280;55464;48.266;14.188;2023-05-02T05:01:16;97890.78;;;12.72;72.52
68476;BME280;55464;48.266;14.188;2023-05-02T05:03:42;97902.34;;;12.78;72.73
68476;BME280;55464;48.266;14.188;2023-05-02T05:06:07;97899.81;;;12.85;72.32
68476;BME280;55464;48.266;14.188;2023-05-02T05:08:32;97903.28;;;12.82;72.32
68476;BME280;55464;48.266;14.188;2023-05-02T05:10:58;97905.13;;;12.78;71.93
68476;BME280;55464;48.266;14.188;2023-05-02T05:13:23;97901.56;;;12.77;72.03
68476;BME280;55464;48.266;14.188;2023-05-02T05:15:49;97913.41;;;12.78;72.45
68476;BME280;55464;48.266;14.188;2023-05-02T05:18:14;97903.88;;;12.75;72.47
68476;BME280;55464;48.266;14.188;2023-05-02T05:20:39;97909.06;;;12.77;72.30
68476;BME280;55464;48.266;14.188;2023-05-02T05:23:05;97919.88;;;12.82;72.36
68476;BME280;55464;48.266;14.188;2023-05-02T05:25:36;97918.88;;;12.74;72.72
68476;BME280;55464;48.266;14.188;2023-05-02T05:28:02;97913.69;;;12.73;72.55
68476;BME280;55464;48.266;14.188;2023-05-02T05:30:27;97920.56;;;12.79;72.58
68476;BME280;55464;48.266;14.188;2023-05-02T05:32:55;97933.59;;;12.78;72.58
68476;BME280;55464;48.266;14.188;2023-05-02T05:35:20;97918.34;;;12.84;71.88
68476;BME280;55464;48.266;14.188;2023-05-02T05:37:45;97922.56;;;12.94;72.62
68476;BME280;55464;48.266;14.188;2023-05-02T05:40:11;97926.72;;;12.88;72.31
68476;BME280;55464;48.266;14.188;2023-05-02T05:42:36;97926.72;;;12.88;72.52
68476;BME280;55464;48.266;14.188;2023-05-02T05:45:02;97912.63;;;12.93;72.26
68476;BME280;55464;48.266;14.188;2023-05-02T05:47:27;97917.63;;;12.88;72.73
68476;BME280;55464;48.266;14.188;2023-05-02T05:49:55;97931.47;;;12.88;72.92
68476;BME280;55464;48.266;14.188;2023-05-02T05:52:21;97921.38;;;12.95;72.56
68476;BME280;55464;48.266;14.188;2023-05-02T05:54:48;97927.72;;;12.96;72.52
68476;BME280;55464;48.266;14.188;2023-05-02T05:57:14;97936.22;;;13.03;72.47
68476;BME280;55464;48.266;14.188;2023-05-02T05:59:39;97927.72;;;12.96;72.37
68476;BME280;55464;48.266;14.188;2023-05-02T06:02:05;97933.53;;;12.91;72.46
68476;BME280;55464;48.266;14.188;2023-05-02T06:04:30;97940.22;;;12.90;72.95
68476;BME280;55464;48.266;14.188;2023-05-02T06:06:56;97944.06;;;12.85;73.02
68476;BME280;55464;48.266;14.188;2023-05-02T06:09:21;97943.22;;;12.84;72.96
68476;BME280;55464;48.266;14.188;2023-05-02T06:11:47;97938.06;;;12.83;73.16
68476;BME280;55464;48.266;14.188;2023-05-02T06:14:12;97942.72;;;12.95;72.52
68476;BME280;55464;48.266;14.188;2023-05-02T06:16:37;97947.19;;;12.99;72.86
68476;BME280;55464;48.266;14.188;2023-05-02T06:19:03;97954.38;;;12.88;72.46
68476;BME280;55464;48.266;14.188;2023-05-02T06:21:28;97946.91;;;12.89;72.71
68476;BME280;55464;48.266;14.188;2023-05-02T06:23:54;97960.28;;;13.02;72.56
68476;BME280;55464;48.266;14.188;2023-05-02T06:26:19;97956.28;;;13.00;72.79
68476;BME280;55464;48.266;14.188;2023-05-02T06:28:45;97948.34;;;12.98;72.63
68476;BME280;55464;48.266;14.188;2023-05-02T06:31:11;97965.03;;;13.02;72.37
68476;BME280;55464;48.266;14.188;2023-05-02T06:33:36;97967.16;;;12.93;72.54
68476;BME280;55464;48.266;14.188;2023-05-02T06:36:02;97969.75;;;12.85;72.75
68476;BME280;55464;48.266;14.188;2023-05-02T06:38:28;97969.41;;;12.87;72.96
68476;BME280;55464;48.266;14.188;2023-05-02T06:40:53;97969.75;;;12.85;72.44
68476;BME280;55464;48.266;14.188;2023-05-02T06:43:19;97977.34;;;12.89;72.83
68476;BME280;55464;48.266;14.188;2023-05-02T06:45:45;97986.19;;;12.94;72.62
68476;BME280;55464;48.266;14.188;2023-05-02T06:48:10;97975.13;;;12.94;72.63
68476;BME280;55464;48.266;14.188;2023-05-02T06:50:36;97989.03;;;12.98;72.22
68476;BME280;55464;48.266;14.188;2023-05-02T06:53:03;97993.13;;;13.04;72.72
68476;BME280;55464;48.266;14.188;2023-05-02T06:55:28;97988.34;;;13.01;72.58
68476;BME280;55464;48.266;14.188;2023-05-02T06:57:54;97991.03;;;13.13;72.26
68476;BME280;55464;48.266;14.188;2023-05-02T07:00:20;98004.75;;;13.10;72.35
68476;BME280;55464;48.266;14.188;2023-05-02T07:02:47;98004.69;;;13.06;72.88
68476;BME280;55464;48.266;14.188;2023-05-02T07:05:13;98006.97;;;13.04;72.43
68476;BME280;55464;48.266;14.188;2023-05-02T07:07:42;98003.31;;;13.16;72.29
68476;BME280;55464;48.266;14.188;2023-05-02T07:10:08;98006.34;;;13.11;72.63
68476;BME280;55464;48.266;14.188;2023-05-02T07:12:34;98010.31;;;13.10;71.93
68476;BME280;55464;48.266;14.188;2023-05-02T07:14:59;98010.03;;;13.15;72.32
68476;BME280;55464;48.266;14.188;2023-05-02T07:17:25;98000.47;;;13.12;71.54
68476;BME280;55464;48.266;14.188;2023-05-02T07:19:51;98011.00;;;13.22;71.42
68476;BME280;55464;48.266;14.188;2023-05-02T07:22:17;98009.81;;;13.08;71.82
68476;BME280;55464;48.266;14.188;2023-05-02T07:24:42;98008.59;;;13.05;71.87
68476;BME280;55464;48.266;14.188;2023-05-02T07:27:09;98019.22;;;13.19;71.55
68476;BME280;55464;48.266;14.188;2023-05-02T07:29:35;98019.94;;;13.16;71.87
68476;BME280;55464;48.266;14.188;2023-05-02T07:32:00;98022.25;;;13.14;72.40
68476;BME280;55464;48.266;14.188;2023-05-02T07:34:26;98015.28;;;13.20;71.93
68476;BME280;55464;48.266;14.188;2023-05-02T07:36:51;98022.88;;;13.23;71.90
68476;BME280;55464;48.266;14.188;2023-05-02T07:39:16;98029.31;;;13.27;71.49
68476;BME280;55464;48.266;14.188;2023-05-02T07:41:42;98011.91;;;13.27;70.94
68476;BME280;55464;48.266;14.188;2023-05-02T07:44:07;98021.66;;;13.36;71.48
68476;BME280;55464;48.266;14.188;2023-05-02T07:46:33;98021.31;;;13.38;70.97
68476;BME280;55464;48.266;14.188;2023-05-02T07:48:58;98032.03;;;13.39;70.44
68476;BME280;55464;48.266;14.188;2023-05-02T07:51:24;98017.88;;;13.29;70.04
68476;BME280;55464;48.266;14.188;2023-05-02T07:53:51;98036.47;;;13.44;70.84
68476;BME280;55464;48.266;14.188;2023-05-02T07:56:23;98027.75;;;13.42;70.46
68476;BME280;55464;48.266;14.188;2023-05-02T07:58:48;98042.19;;;13.51;70.76
68476;BME280;55464;48.266;14.188;2023-05-02T08:01:15;98038.09;;;13.45;70.53
68476;BME280;55464;48.266;14.188;2023-05-02T08:03:41;98039.69;;;13.46;70.35
68476;BME280;55464;48.266;14.188;2023-05-02T08:06:06;98035.06;;;13.50;70.21
68476;BME280;55464;48.266;14.188;2023-05-02T08:08:33;98046.75;;;13.59;69.82
68476;BME280;55464;48.266;14.188;2023-05-02T08:10:58;98044.06;;;13.63;69.88
68476;BME280;55464;48.266;14.188;2023-05-02T08:13:24;98049.00;;;13.70;69.44
68476;BME280;55464;48.266;14.188;2023-05-02T08:15:49;98040.16;;;13.64;69.05
68476;BME280;55464;48.266;14.188;2023-05-02T08:18:15;98047.28;;;13.65;68.29
68476;BME280;55464;48.266;14.188;2023-05-02T08:20:42;98050.78;;;13.78;67.81
68476;BME280;55464;48.266;14.188;2023-05-02T08:23:07;98042.34;;;13.74;68.28
68476;BME280;55464;48.266;14.188;2023-05-02T08:25:33;98052.19;;;13.72;67.82
68476;BME280;55464;48.266;14.188;2023-05-02T08:27:58;98054.44;;;13.66;68.58
68476;BME280;55464;48.266;14.188;2023-05-02T08:30:23;98043.88;;;13.72;67.69
68476;BME280;55464;48.266;14.188;2023-05-02T08:32:49;98053.81;;;13.73;67.61
68476;BME280;55464;48.266;14.188;2023-05-02T08:35:14;98037.91;;;13.70;68.16
68476;BME280;55464;48.266;14.188;2023-05-02T08:37:40;98050.31;;;13.76;68.24
68476;BME280;55464;48.266;14.188;2023-05-02T08:40:10;98039.22;;;13.76;68.56
68476;BME280;55464;48.266;14.188;2023-05-02T08:42:36;98044.50;;;13.81;68.19
68476;BME280;55464;48.266;14.188;2023-05-02T08:45:02;98037.97;;;13.89;68.55
68476;BME280;55464;48.266;14.188;2023-05-02T08:47:28;98036.34;;;13.88;68.21
68476;BME280;55464;48.266;14.188;2023-05-02T08:49:57;98042.06;;;13.95;67.57
68476;BME280;55464;48.266;14.188;2023-05-02T08:52:23;98051.03;;;13.89;67.74
68476;BME280;55464;48.266;14.188;2023-05-02T08:54:49;98047.72;;;13.99;66.41
68476;BME280;55464;48.266;14.188;2023-05-02T08:57:15;98057.06;;;14.10;66.59
68476;BME280;55464;48.266;14.188;2023-05-02T08:59:41;98042.41;;;14.10;66.66
68476;BME280;55464;48.266;14.188;2023-05-02T09:02:37;98056.69;;;14.12;67.25
68476;BME280;55464;48.266;14.188;2023-05-02T09:05:06;98047.75;;;14.18;65.84
68476;BME280;55464;48.266;14.188;2023-05-02T09:07:52;98058.00;;;14.18;66.25
68476;BME280;55464;48.266;14.188;2023-05-02T09:10:17;98051.94;;;14.12;66.37
68476;BME280;55464;48.266;14.188;2023-05-02T09:12:43;98060.25;;;14.12;66.05
68476;BME280;55464;48.266;14.188;2023-05-02T09:15:13;98064.66;;;14.13;66.53
68476;BME280;55464;48.266;14.188;2023-05-02T09:17:45;98069.72;;;14.27;65.94
68476;BME280;55464;48.266;14.188;2023-05-02T09:20:12;98071.75;;;14.30;66.24
68476;BME280;55464;48.266;14.188;2023-05-02T09:22:38;98071.09;;;14.37;66.14
68476;BME280;55464;48.266;14.188;2023-05-02T09:25:07;98064.69;;;14.33;65.64
68476;BME280;55464;48.266;14.188;2023-05-02T09:27:52;98068.03;;;14.42;65.51
68476;BME280;55464;48.266;14.188;2023-05-02T09:30:25;98076.44;;;14.46;65.24
68476;BME280;55464;48.266;14.188;2023-05-02T09:32:51;98070.09;;;14.45;65.70
68476;BME280;55464;48.266;14.188;2023-05-02T09:35:18;98069.09;;;14.53;63.77
68476;BME280;55464;48.266;14.188;2023-05-02T09:37:54;98073.75;;;14.49;65.20
68476;BME280;55464;48.266;14.188;2023-05-02T09:40:19;98067.91;;;14.54;64.88
68476;BME280;55464;48.266;14.188;2023-05-02T09:42:45;98069.91;;;14.73;63.74
68476;BME280;55464;48.266;14.188;2023-05-02T09:45:24;98084.50;;;14.70;65.22
68476;BME280;55464;48.266;14.188;2023-05-02T09:47:51;98091.09;;;14.62;64.48
68476;BME280;55464;48.266;14.188;2023-05-02T09:50:36;98081.66;;;14.67;64.38
68476;BME280;55464;48.266;14.188;2023-05-02T09:53:06;98080.00;;;14.62;64.33
68476;BME280;55464;48.266;14.188;2023-05-02T09:55:33;98092.13;;;14.73;63.35
68476;BME280;55464;48.266;14.188;2023-05-02T09:57:59;98089.41;;;14.77;63.70
68476;BME280;55464;48.266;14.188;2023-05-02T10:00:39;98092.25;;;14.81;63.15
68476;BME280;55464;48.266;14.188;2023-05-02T10:03:08;98088.75;;;14.84;63.18
68476;BME280;55464;48.266;14.188;2023-05-02T10:05:38;98088.34;;;14.82;62.17
68476;BME280;55464;48.266;14.188;2023-05-02T10:08:05;98092.97;;;14.78;64.06
68476;BME280;55464;48.266;14.188;2023-05-02T10:10:36;98088.63;;;14.77;62.35
68476;BME280;55464;48.266;14.188;2023-05-02T10:13:03;98095.47;;;14.83;63.25
68476;BME280;55464;48.266;14.188;2023-05-02T10:15:31;98089.13;;;14.82;63.12
68476;BME280;55464;48.266;14.188;2023-05-02T10:18:05;98089.84;;;14.79;63.02
68476;BME280;55464;48.266;14.188;2023-05-02T10:20:36;98091.47;;;14.80;62.88
68476;BME280;55464;48.266;14.188;2023-05-02T10:23:07;98094.75;;;14.86;62.34
68476;BME280;55464;48.266;14.188;2023-05-02T10:25:32;98104.09;;;14.97;62.68
68476;BME280;55464;48.266;14.188;2023-05-02T10:27:58;98094.88;;;14.93;62.17
68476;BME280;55464;48.266;14.188;2023-05-02T10:30:25;98094.81;;;14.89;62.48
68476;BME280;55464;48.266;14.188;2023-05-02T10:32:52;98089.41;;;14.97;63.14
68476;BME280;55464;48.266;14.188;2023-05-02T10:35:21;98083.44;;;14.94;62.43
68476;BME280;55464;48.266;14.188;2023-05-02T10:37:49;98091.03;;;14.98;62.51
68476;BME280;55464;48.266;14.188;2023-05-02T10:40:15;98096.66;;;15.01;61.77
68476;BME280;55464;48.266;14.188;2023-05-02T10:42:45;98096.28;;;15.03;61.74
68476;BME280;55464;48.266;14.188;2023-05-02T10:45:28;98098.63;;;15.01;61.29
68476;BME280;55464;48.266;14.188;2023-05-02T10:48:13;98104.44;;;15.15;61.37
68476;BME280;55464;48.266;14.188;2023-05-02T10:50:49;98095.53;;;15.06;60.92
68476;BME280;55464;48.266;14.188;2023-05-02T10:53:26;98103.94;;;15.09;61.56
68476;BME280;55464;48.266;14.188;2023-05-02T10:58:32;98092.28;;;15.23;60.18
68476;BME280;55464;48.266;14.188;2023-05-02T11:04:08;98091.28;;;15.12;60.20
68476;BME280;55464;48.266;14.188;2023-05-02T11:11:48;98097.16;;;15.07;60.98
68476;BME280;55464;48.266;14.188;2023-05-02T11:19:29;98094.88;;;15.12;60.42
68476;BME280;55464;48.266;14.188;2023-05-02T11:24:48;98094.31;;;15.03;61.34
68476;BME280;55464;48.266;14.188;2023-05-02T11:33:09;98102.19;;;15.01;61.19
68476;BME280;55464;48.266;14.188;2023-05-02T11:35:18;98115.63;;;14.99;61.17
68476;BME280;55464;48.266;14.188;2023-05-02T11:37:56;98106.00;;;14.93;62.97
68476;BME280;55464;48.266;14.188;2023-05-02T11:40:23;98096.38;;;14.87;62.89
68476;BME280;55464;48.266;14.188;2023-05-02T11:42:49;98104.69;;;14.87;63.03
68476;BME280;55464;48.266;14.188;2023-05-02T11:45:14;98109.56;;;14.93;62.66
68476;BME280;55464;48.266;14.188;2023-05-02T11:47:41;98114.75;;;14.95;61.69
68476;BME280;55464;48.266;14.188;2023-05-02T11:50:07;98118.63;;;14.90;62.01
68476;BME280;55464;48.266;14.188;2023-05-02T11:52:42;98109.19;;;14.95;61.49
68476;BME280;55464;48.266;14.188;2023-05-02T11:55:10;98103.56;;;14.91;60.80
68476;BME280;55464;48.266;14.188;2023-05-02T11:57:37;98122.63;;;14.93;61.64
68476;BME280;55464;48.266;14.188;2023-05-02T12:00:03;98104.00;;;14.93;60.59
68476;BME280;55464;48.266;14.188;2023-05-02T12:02:42;98119.06;;;14.92;60.59
68476;BME280;55464;48.266;14.188;2023-05-02T12:05:12;98117.59;;;14.99;60.34
68476;BME280;55464;48.266;14.188;2023-05-02T12:07:45;98117.53;;;14.95;60.82
68476;BME280;55464;48.266;14.188;2023-05-02T12:10:13;98111.59;;;14.97;60.98
68476;BME280;55464;48.266;14.188;2023-05-02T12:12:42;98112.13;;;15.02;61.40
68476;BME280;55464;48.266;14.188;2023-05-02T12:15:09;98122.72;;;14.97;60.75
68476;BME280;55464;48.266;14.188;2023-05-02T12:17:40;98115.28;;;15.01;60.95
68476;BME280;55464;48.266;14.188;2023-05-02T12:20:08;98112.63;;;15.08;60.99
68476;BME280;55464;48.266;14.188;2023-05-02T12:22:35;98123.16;;;14.99;61.45
68476;BME280;55464;48.266;14.188;2023-05-02T12:25:01;98109.88;;;15.08;60.79
68476;BME280;55464;48.266;14.188;2023-05-02T12:27:30;98118.13;;;15.04;60.89
68476;BME280;55464;48.266;14.188;2023-05-02T12:29:57;98111.03;;;15.07;61.48
68476;BME280;55464;48.266;14.188;2023-05-02T12:32:31;98119.78;;;15.09;61.63
68476;BME280;55464;48.266;14.188;2023-05-02T12:34:58;98115.91;;;15.13;62.13
68476;BME280;55464;48.266;14.188;2023-05-02T12:37:24;98121.84;;;15.12;62.12
68476;BME280;55464;48.266;14.188;2023-05-02T12:39:51;98124.91;;;15.07;62.47
68476;BME280;55464;48.266;14.188;2023-05-02T12:42:20;98135.28;;;15.10;61.70
68476;BME280;55464;48.266;14.188;2023-05-02T12:44:47;98125.34;;;15.09;61.18
68476;BME280;55464;48.266;14.188;2023-05-02T12:47:14;98139.50;;;15.04;61.16
68476;BME280;55464;48.266;14.188;2023-05-02T12:49:55;98128.47;;;15.07;61.40
68476;BME280;55464;48.266;14.188;2023-05-02T12:52:46;98140.41;;;15.08;61.88
68476;BME280;55464;48.266;14.188;2023-05-02T12:57:43;98142.72;;;15.06;62.33
68476;BME280;55464;48.266;14.188;2023-05-02T13:00:09;98141.84;;;15.02;63.14
68476;BME280;55464;48.266;14.188;2023-05-02T13:02:35;98137.84;;;14.99;63.90
68476;BME280;55464;48.266;14.188;2023-05-02T13:05:00;98144.34;;;15.07;65.00
68476;BME280;55464;48.266;14.188;2023-05-02T13:07:26;98143.19;;;15.08;64.28
68476;BME280;55464;48.266;14.188;2023-05-02T13:09:51;98134.03;;;15.07;64.54
68476;BME280;55464;48.266;14.188;2023-05-02T13:12:16;98132.50;;;15.10;65.60
68476;BME280;55464;48.266;14.188;2023-05-02T13:14:42;98125.69;;;15.07;63.90
68476;BME280;55464;48.266;14.188;2023-05-02T13:17:08;98136.38;;;15.05;62.37
68476;BME280;55464;48.266;14.188;2023-05-02T13:19:34;98129.59;;;15.03;64.39
68476;BME280;55464;48.266;14.188;2023-05-02T13:21:59;98129.94;;;15.01;64.29
68476;BME280;55464;48.266;14.188;2023-05-02T13:24:25;98130.03;;;15.05;64.35
68476;BME280;55464;48.266;14.188;2023-05-02T13:26:50;98137.25;;;15.09;63.62
68476;BME280;55464;48.266;14.188;2023-05-02T13:29:16;98138.56;;;15.16;64.53
68476;BME280;55464;48.266;14.188;2023-05-02T13:31:41;98132.50;;;15.10;63.96
68476;BME280;55464;48.266;14.188;2023-05-02T13:34:07;98132.50;;;15.10;64.45